createdAt,value
2022-10-03T00:00:20.054Z,19.23
2022-10-03T00:03:19.788Z,18.05
2022-10-03T00:06:10.232Z,16.98
2022-10-03T00:08:58.085Z,17.20
2022-10-03T00:11:36.224Z,17.77
2022-10-03T00:14:14.297Z,17.02
2022-10-03T00:16:51.270Z,17.08
2022-10-03T00:19:31.352Z,19.10
2022-10-03T00:22:18.425Z,19.50
2022-10-03T00:24:59.944Z,18.25
2022-10-03T00:27:34.803Z,19.20
2022-10-03T00:30:18.603Z,17.10
2022-10-03T00:33:03.260Z,18.05
2022-10-03T00:35:44.098Z,19.23
2022-10-03T00:38:41.342Z,18.80
2022-10-03T00:41:33.873Z,18.55
2022-10-03T00:44:35.293Z,18.13
2022-10-03T00:47:26.295Z,18.38
2022-10-03T00:50:06.502Z,18.23
2022-10-03T00:52:59.862Z,20.20
2022-10-03T00:55:42.468Z,20.77
2022-10-03T00:58:35.387Z,20.05
2022-10-03T01:01:23.505Z,18.98
2022-10-03T01:03:59.437Z,21.80
2022-10-03T01:06:35.021Z,19.38
2022-10-03T01:09:22.621Z,20.80
2022-10-03T01:12:06.091Z,21.60
2022-10-03T01:14:57.526Z,21.27
2022-10-03T01:17:37.411Z,21.65
2022-10-03T01:20:22.971Z,19.88
2022-10-03T01:23:13.275Z,19.85
2022-10-03T01:25:51.785Z,19.73
2022-10-03T01:28:56.340Z,19.70
2022-10-03T01:31:30.125Z,19.85
2022-10-03T01:34:06.846Z,19.65
2022-10-03T01:36:44.011Z,20.35
2022-10-03T01:39:22.764Z,20.63
2022-10-03T01:41:59.259Z,20.70
2022-10-03T01:44:38.044Z,20.75
2022-10-03T01:47:18.544Z,21.30
2022-10-03T01:49:55.102Z,21.15
2022-10-03T01:52:33.388Z,18.13
2022-10-03T01:55:09.007Z,19.38
2022-10-03T01:57:44.029Z,18.27
2022-10-03T02:00:17.874Z,19.88
2022-10-03T02:02:54.150Z,19.63
2022-10-03T02:05:36.669Z,19.73
2022-10-03T02:08:08.836Z,22.00
2022-10-03T02:10:44.651Z,21.25
2022-10-03T02:13:17.195Z,20.52
2022-10-03T02:15:58.616Z,20.15
2022-10-03T02:18:39.550Z,14.05
2022-10-03T02:21:14.399Z,18.17
2022-10-03T02:23:46.278Z,16.88
2022-10-03T02:26:41.811Z,15.75
2022-10-03T02:29:29.257Z,17.77
2022-10-03T02:32:22.595Z,16.67
2022-10-03T02:35:18.182Z,17.70
2022-10-03T02:38:10.023Z,16.30
2022-10-03T02:40:58.212Z,16.20
2022-10-03T02:43:45.082Z,15.68
2022-10-03T02:47:07.492Z,12.90
2022-10-03T02:50:19.151Z,15.23
2022-10-03T02:53:25.806Z,14.52
2022-10-03T02:56:26.569Z,16.33
2022-10-03T02:59:16.595Z,14.65
2022-10-03T03:02:17.490Z,18.48
2022-10-03T03:05:19.151Z,15.35
2022-10-03T03:08:10.876Z,17.05
2022-10-03T03:11:08.276Z,14.35
2022-10-03T03:14:11.442Z,13.10
2022-10-03T03:16:55.824Z,15.60
2022-10-03T03:19:43.703Z,17.52
2022-10-03T03:22:32.377Z,17.50
2022-10-03T03:25:22.995Z,17.63
2022-10-03T03:28:04.556Z,13.93
2022-10-03T03:30:42.764Z,13.02
2022-10-03T03:33:21.956Z,15.13
2022-10-03T03:36:01.965Z,12.75
2022-10-03T03:38:41.837Z,13.05
2022-10-03T03:41:31.343Z,13.10
2022-10-03T03:44:13.410Z,11.32
2022-10-03T03:47:02.725Z,11.77
2022-10-03T03:49:47.798Z,12.50
2022-10-03T03:52:35.303Z,12.15
2022-10-03T03:55:22.658Z,10.10
2022-10-03T03:58:10.083Z,9.77
2022-10-03T04:00:57.692Z,9.90
2022-10-03T04:03:44.866Z,10.63
2022-10-03T04:06:27.303Z,10.70
2022-10-03T04:09:17.188Z,11.07
2022-10-03T04:11:57.529Z,9.63
2022-10-03T04:14:58.922Z,9.40
2022-10-03T04:18:00.486Z,10.02
2022-10-03T04:20:48.887Z,9.30
2022-10-03T04:23:32.911Z,9.43
2022-10-03T04:26:25.566Z,9.75
2022-10-03T04:29:29.164Z,9.82
2022-10-03T04:32:09.536Z,9.13
2022-10-03T04:34:51.742Z,9.35
2022-10-03T04:37:25.750Z,9.18
2022-10-03T04:40:08.104Z,9.50
2022-10-03T04:42:48.318Z,9.50
2022-10-03T04:45:37.071Z,9.57
2022-10-03T04:48:16.727Z,9.45
2022-10-03T04:50:57.413Z,10.45
2022-10-03T04:53:42.545Z,10.50
2022-10-03T04:56:30.364Z,9.95
2022-10-03T04:59:06.653Z,11.05
2022-10-03T05:01:41.906Z,9.73
2022-10-03T05:04:27.513Z,10.73
2022-10-03T05:07:06.298Z,8.68
2022-10-03T05:09:41.425Z,10.00
2022-10-03T05:12:20.951Z,9.63
2022-10-03T05:15:03.968Z,11.73
2022-10-03T05:17:43.250Z,10.85
2022-10-03T05:20:25.793Z,10.63
2022-10-03T05:23:03.065Z,9.82
2022-10-03T05:25:45.001Z,10.13
2022-10-03T05:28:26.528Z,9.88
2022-10-03T05:31:04.340Z,9.15
2022-10-03T05:33:42.868Z,10.55
2022-10-03T05:36:22.251Z,9.07
2022-10-03T05:39:27.382Z,9.38
2022-10-03T05:42:21.419Z,9.80
2022-10-03T05:44:58.952Z,10.35
2022-10-03T05:47:49.328Z,10.40
2022-10-03T05:50:36.267Z,10.57
2022-10-03T05:53:25.789Z,10.60
2022-10-03T05:56:03.534Z,10.10
2022-10-03T05:58:44.815Z,10.43
2022-10-03T06:01:34.924Z,10.27
2022-10-03T06:04:23.634Z,10.77
2022-10-03T06:07:06.655Z,11.68
2022-10-03T06:10:20.071Z,11.65
2022-10-03T06:12:57.689Z,12.02
2022-10-03T06:15:55.805Z,11.48
2022-10-03T06:19:12.855Z,12.05
2022-10-03T06:22:30.109Z,11.35
2022-10-03T06:25:34.350Z,11.20
2022-10-03T06:28:44.400Z,11.80
2022-10-03T06:32:00.802Z,11.60
2022-10-03T06:35:07.282Z,10.35
2022-10-03T06:38:11.056Z,11.13
2022-10-03T06:41:05.475Z,9.65
2022-10-03T06:43:49.773Z,9.65
2022-10-03T06:46:48.750Z,10.18
2022-10-03T06:49:52.606Z,10.10
2022-10-03T06:52:39.776Z,9.90
2022-10-03T06:55:34.487Z,10.68
2022-10-03T06:58:43.438Z,10.45
2022-10-03T07:01:50.918Z,10.45
2022-10-03T07:04:48.917Z,10.35
2022-10-03T07:08:09.526Z,12.25
2022-10-03T07:10:54.577Z,11.63
2022-10-03T07:13:46.339Z,12.00
2022-10-03T07:16:41.496Z,11.30
2022-10-03T07:19:28.193Z,10.43
2022-10-03T07:22:41.683Z,8.63
2022-10-03T07:25:37.177Z,7.43
2022-10-03T07:28:23.761Z,5.47
2022-10-03T07:31:10.074Z,5.32
2022-10-03T07:34:14.429Z,5.20
2022-10-03T07:37:15.593Z,5.18
2022-10-03T07:40:14.566Z,6.38
2022-10-03T07:43:05.365Z,5.80
2022-10-03T07:45:39.499Z,5.07
2022-10-03T07:48:51.398Z,5.97
2022-10-03T07:51:30.618Z,6.18
2022-10-03T07:54:31.848Z,6.50
2022-10-03T07:57:38.920Z,5.47
2022-10-03T08:00:40.525Z,6.97
2022-10-03T08:03:44.309Z,7.18
2022-10-03T08:06:24.671Z,7.28
2022-10-03T08:09:29.803Z,6.95
2022-10-03T08:12:28.622Z,6.22
2022-10-03T08:15:07.644Z,5.95
2022-10-03T08:18:00.073Z,6.20
2022-10-03T08:20:50.918Z,5.80
2022-10-03T08:23:51.439Z,5.10
2022-10-03T08:26:31.153Z,5.93
2022-10-03T08:29:28.107Z,5.43
2022-10-03T08:32:36.194Z,5.22
2022-10-03T08:35:26.520Z,5.68
2022-10-03T08:38:23.810Z,5.13
2022-10-03T08:41:29.524Z,5.72
2022-10-03T08:44:40.393Z,5.95
2022-10-03T08:47:32.337Z,5.95
2022-10-03T08:50:35.656Z,5.47
2022-10-03T08:53:41.138Z,6.07
2022-10-03T08:56:16.025Z,6.95
2022-10-03T08:59:36.491Z,7.00
2022-10-03T09:02:45.263Z,7.13
2022-10-03T09:05:47.072Z,7.22
2022-10-03T09:08:44.983Z,7.95
2022-10-03T09:12:15.588Z,7.70
2022-10-03T09:15:37.736Z,7.82
2022-10-03T09:18:26.731Z,7.95
2022-10-03T09:21:41.953Z,8.40
2022-10-03T09:24:33.707Z,8.82
2022-10-03T09:27:24.951Z,8.25
2022-10-03T09:30:16.699Z,7.68
2022-10-03T09:33:19.635Z,8.77
2022-10-03T09:36:17.405Z,9.20
2022-10-03T09:39:12.619Z,8.80
2022-10-03T09:42:15.147Z,8.35
2022-10-03T09:45:02.412Z,8.35
2022-10-03T09:48:05.061Z,7.90
2022-10-03T09:51:01.770Z,9.20
2022-10-03T09:54:00.964Z,9.60
2022-10-03T09:56:58.724Z,9.95
2022-10-03T09:59:41.023Z,9.13
2022-10-03T10:02:46.094Z,9.55
2022-10-03T10:05:46.257Z,10.02
2022-10-03T10:08:48.929Z,10.38
2022-10-03T10:11:31.679Z,9.48
2022-10-03T10:14:48.532Z,9.55
2022-10-03T10:17:55.117Z,8.63
2022-10-03T10:20:54.821Z,9.20
2022-10-03T10:23:38.171Z,8.77
2022-10-03T10:26:45.329Z,10.55
2022-10-03T10:29:42.301Z,10.70
2022-10-03T10:33:03.576Z,10.98
2022-10-03T10:36:07.123Z,11.02
2022-10-03T10:39:12.752Z,11.18
2022-10-03T10:42:12.568Z,12.93
2022-10-03T10:45:21.836Z,10.48
2022-10-03T10:48:18.183Z,11.18
2022-10-03T10:51:29.916Z,9.88
2022-10-03T10:54:39.156Z,10.95
2022-10-03T10:57:39.592Z,10.65
2022-10-03T11:00:34.012Z,12.60
2022-10-03T11:03:53.805Z,11.88
2022-10-03T11:07:05.248Z,11.55
2022-10-03T11:09:48.334Z,12.57
2022-10-03T11:12:49.645Z,11.95
2022-10-03T11:15:54.493Z,12.40
2022-10-03T11:19:01.526Z,12.27
2022-10-03T11:22:13.587Z,12.80
2022-10-03T11:25:17.693Z,12.85
2022-10-03T11:28:26.898Z,13.30
2022-10-03T11:31:34.364Z,12.52
2022-10-03T11:34:36.819Z,12.25
2022-10-03T11:37:12.069Z,13.18
2022-10-03T11:39:49.245Z,12.88
2022-10-03T11:42:33.318Z,13.15
2022-10-03T11:45:03.705Z,13.10
2022-10-03T11:47:51.180Z,13.70
2022-10-03T11:50:46.030Z,13.85
2022-10-03T11:53:28.443Z,13.35
2022-10-03T11:56:11.505Z,12.57
2022-10-03T11:59:07.431Z,12.52
2022-10-03T12:01:51.594Z,14.65
2022-10-03T12:04:30.136Z,15.75
2022-10-03T12:07:24.954Z,15.20
2022-10-03T12:10:04.587Z,14.70
2022-10-03T12:12:42.371Z,14.25
2022-10-03T12:15:28.927Z,14.25
2022-10-03T12:18:06.805Z,14.27
2022-10-03T12:20:52.920Z,15.23
2022-10-03T12:23:34.259Z,14.07
2022-10-03T12:26:05.471Z,14.32
2022-10-03T12:28:40.055Z,14.68
2022-10-03T12:31:18.990Z,13.23
2022-10-03T12:33:53.552Z,14.18
2022-10-03T12:36:31.345Z,15.18
2022-10-03T12:39:15.706Z,15.88
2022-10-03T12:42:04.716Z,16.00
2022-10-03T12:44:44.557Z,16.67
2022-10-03T12:47:51.085Z,15.50
2022-10-03T12:50:30.821Z,16.35
2022-10-03T12:53:25.259Z,16.92
2022-10-03T12:56:16.724Z,14.20
2022-10-03T12:58:55.676Z,17.33
2022-10-03T13:01:36.414Z,16.55
2022-10-03T13:04:14.288Z,18.40
2022-10-03T13:07:04.005Z,16.50
2022-10-03T13:09:58.329Z,16.50
2022-10-03T13:12:39.349Z,15.57
2022-10-03T13:15:44.436Z,16.98
2022-10-03T13:18:36.611Z,17.45
2022-10-03T13:21:40.767Z,17.75
2022-10-03T13:24:06.793Z,18.15
2022-10-03T13:26:47.621Z,17.63
2022-10-03T13:29:31.971Z,15.15
2022-10-03T13:32:16.218Z,14.68
2022-10-03T13:35:34.168Z,14.63
2022-10-03T13:38:16.889Z,15.05
2022-10-03T13:40:51.332Z,13.82
2022-10-03T13:43:25.945Z,14.85
2022-10-03T13:45:57.635Z,14.27
2022-10-03T13:48:28.275Z,14.43
2022-10-03T13:51:02.496Z,14.55
2022-10-03T13:53:53.345Z,13.10
2022-10-03T13:56:36.568Z,13.65
2022-10-03T13:59:15.374Z,13.90
2022-10-03T14:01:56.882Z,13.48
2022-10-03T14:04:42.426Z,11.95
2022-10-03T14:07:22.699Z,11.38
2022-10-03T14:10:10.566Z,10.48
2022-10-03T14:12:56.165Z,10.13
2022-10-03T14:15:51.426Z,9.20
2022-10-03T14:18:36.334Z,9.70
2022-10-03T14:21:44.793Z,7.95
2022-10-03T14:24:30.147Z,7.70
2022-10-03T14:27:09.756Z,6.68
2022-10-03T14:29:48.567Z,7.07
2022-10-03T14:32:46.070Z,5.55
2022-10-03T14:35:25.802Z,5.40
2022-10-03T14:38:01.652Z,5.47
2022-10-03T14:40:41.207Z,5.10
2022-10-03T14:43:31.557Z,4.85
2022-10-03T14:46:01.975Z,5.05
2022-10-03T14:48:38.004Z,4.80
2022-10-03T14:51:14.422Z,5.28
2022-10-03T14:53:48.776Z,5.20
2022-10-03T14:56:21.632Z,5.35
2022-10-03T14:58:53.083Z,4.95
2022-10-03T15:01:23.359Z,5.78
2022-10-03T15:03:59.556Z,6.53
2022-10-03T15:06:37.601Z,6.45
2022-10-03T15:09:11.133Z,6.70
2022-10-03T15:11:53.585Z,7.20
2022-10-03T15:14:24.426Z,6.60
2022-10-03T15:16:55.991Z,7.07
2022-10-03T15:19:29.374Z,7.82
2022-10-03T15:22:04.130Z,7.80
2022-10-03T15:24:37.968Z,7.35
2022-10-03T15:27:13.894Z,7.45
2022-10-03T15:29:42.388Z,7.40
2022-10-03T15:32:24.148Z,7.28
2022-10-03T15:34:57.094Z,8.25
2022-10-03T15:37:30.075Z,8.55
2022-10-03T15:40:09.610Z,8.13
2022-10-03T15:42:50.581Z,7.57
2022-10-03T15:45:23.122Z,7.68
2022-10-03T15:47:51.843Z,8.60
2022-10-03T15:50:25.214Z,7.60
2022-10-03T15:53:12.448Z,8.07
2022-10-03T15:55:52.402Z,7.97
2022-10-03T15:58:26.850Z,7.90
2022-10-03T16:01:04.905Z,7.85
2022-10-03T16:03:40.965Z,7.78
2022-10-03T16:06:13.757Z,8.02
2022-10-03T16:09:01.472Z,9.20
2022-10-03T16:11:34.275Z,7.85
2022-10-03T16:14:17.873Z,8.40
2022-10-03T16:16:52.428Z,7.25
2022-10-03T16:19:38.006Z,7.78
2022-10-03T16:22:13.549Z,8.65
2022-10-03T16:24:51.952Z,8.50
2022-10-03T16:27:25.068Z,8.23
2022-10-03T16:30:02.981Z,8.80
2022-10-03T16:32:32.442Z,8.55
2022-10-03T16:35:03.842Z,9.10
2022-10-03T16:37:33.268Z,8.02
2022-10-03T16:40:03.818Z,9.57
2022-10-03T16:42:42.908Z,9.27
2022-10-03T16:45:25.384Z,10.90
2022-10-03T16:48:09.924Z,11.07
2022-10-03T16:50:44.456Z,9.65
2022-10-03T16:53:13.772Z,9.38
2022-10-03T16:55:48.764Z,9.18
2022-10-03T16:58:25.688Z,10.45
2022-10-03T17:01:25.747Z,10.20
2022-10-03T17:03:56.415Z,10.32
2022-10-03T17:06:30.608Z,9.20
2022-10-03T17:09:03.796Z,9.52
2022-10-03T17:11:38.453Z,9.27
2022-10-03T17:14:09.920Z,8.45
2022-10-03T17:16:47.583Z,8.88
2022-10-03T17:19:22.223Z,10.18
2022-10-03T17:21:55.036Z,11.40
2022-10-03T17:24:40.505Z,11.30
2022-10-03T17:27:18.848Z,10.75
2022-10-03T17:29:52.552Z,10.15
2022-10-03T17:32:26.557Z,9.88
2022-10-03T17:35:00.644Z,8.88
2022-10-03T17:38:30.407Z,8.68
2022-10-03T17:41:13.285Z,8.60
2022-10-03T17:43:46.919Z,8.18
2022-10-03T17:46:24.572Z,8.52
2022-10-03T17:49:03.918Z,8.40
2022-10-03T17:51:37.027Z,9.35
2022-10-03T17:54:22.975Z,9.93
2022-10-03T17:56:55.325Z,8.40
2022-10-03T17:59:29.299Z,9.00
2022-10-03T18:02:02.580Z,10.00
2022-10-03T18:04:36.964Z,9.40
2022-10-03T18:07:10.378Z,11.30
2022-10-03T18:09:42.651Z,10.40
2022-10-03T18:12:20.470Z,14.48
2022-10-03T18:15:10.961Z,16.65
2022-10-03T18:18:11.116Z,17.58
2022-10-03T18:20:49.997Z,16.75
2022-10-03T18:23:53.116Z,14.88
2022-10-03T18:26:27.277Z,15.25
2022-10-03T18:29:11.590Z,15.90
2022-10-03T18:31:45.451Z,12.23
2022-10-03T18:34:19.897Z,12.52
2022-10-03T18:36:54.588Z,12.68
2022-10-03T18:39:30.461Z,14.88
2022-10-03T18:42:01.457Z,16.13
2022-10-03T18:44:32.392Z,14.32
2022-10-03T18:47:08.581Z,13.95
2022-10-03T18:49:42.209Z,14.23
2022-10-03T18:52:17.730Z,14.40
2022-10-03T18:54:57.343Z,17.27
2022-10-03T18:57:31.544Z,17.30
2022-10-03T19:00:07.528Z,15.85
2022-10-03T19:02:39.799Z,14.68
2022-10-03T19:05:14.512Z,13.73
2022-10-03T19:07:53.021Z,14.90
2022-10-03T19:10:40.551Z,13.77
2022-10-03T19:13:19.831Z,14.25
2022-10-03T19:16:02.270Z,13.43
2022-10-03T19:18:41.972Z,13.13
2022-10-03T19:21:18.634Z,13.55
2022-10-03T19:23:52.420Z,13.32
2022-10-03T19:26:24.393Z,12.32
2022-10-03T19:28:55.563Z,12.48
2022-10-03T19:31:32.404Z,12.30
2022-10-03T19:34:05.193Z,11.60
2022-10-03T19:36:37.593Z,13.05
2022-10-03T19:39:08.996Z,11.40
2022-10-03T19:41:43.279Z,11.40
2022-10-03T19:44:17.883Z,12.20
2022-10-03T19:47:02.711Z,11.35
2022-10-03T19:49:45.104Z,11.35
2022-10-03T19:52:29.736Z,13.43
2022-10-03T19:55:05.888Z,12.48
2022-10-03T19:57:46.273Z,12.20
2022-10-03T20:00:30.119Z,12.23
2022-10-03T20:03:07.093Z,12.70
2022-10-03T20:05:43.072Z,11.95
2022-10-03T20:08:22.868Z,11.60
2022-10-03T20:11:05.891Z,11.43
2022-10-03T20:13:33.909Z,11.30
2022-10-03T20:16:03.626Z,11.00
2022-10-03T20:18:34.704Z,10.93
2022-10-03T20:21:04.210Z,33.22
2022-10-03T20:23:35.985Z,18.60
2022-10-03T20:26:10.340Z,27.83
2022-10-03T20:29:05.427Z,13.35
2022-10-03T20:31:37.381Z,12.85
2022-10-03T20:34:12.844Z,26.55
2022-10-03T20:36:44.910Z,15.65
2022-10-03T20:39:17.110Z,14.77
2022-10-03T20:41:59.565Z,14.63
2022-10-03T20:44:51.940Z,14.93
2022-10-03T20:47:46.432Z,16.23
2022-10-03T20:50:23.593Z,13.27
2022-10-03T20:52:54.616Z,14.00
2022-10-03T20:55:26.487Z,13.32
2022-10-03T20:58:11.637Z,13.70
2022-10-03T21:00:46.243Z,16.00
2022-10-03T21:03:22.686Z,13.15
2022-10-03T21:05:53.331Z,12.60
2022-10-03T21:08:25.059Z,12.27
2022-10-03T21:10:56.822Z,12.35
2022-10-03T21:13:33.044Z,11.63
2022-10-03T21:16:03.607Z,10.23
2022-10-03T21:18:36.862Z,10.85
2022-10-03T21:21:12.139Z,11.48
2022-10-03T21:23:49.795Z,12.05
2022-10-03T21:26:24.097Z,11.18
2022-10-03T21:29:17.677Z,11.57
2022-10-03T21:31:55.986Z,10.50
2022-10-03T21:34:32.254Z,10.27
2022-10-03T21:37:12.786Z,10.20
2022-10-03T21:39:53.478Z,10.15
2022-10-03T21:42:27.229Z,9.60
2022-10-03T21:45:12.322Z,9.32
2022-10-03T21:47:47.951Z,8.85
2022-10-03T21:50:22.388Z,8.55
2022-10-03T21:53:02.367Z,8.00
2022-10-03T21:55:52.554Z,7.93
2022-10-03T21:58:34.953Z,7.60
2022-10-03T22:01:13.290Z,7.53
2022-10-03T22:03:49.740Z,7.32
2022-10-03T22:06:24.091Z,7.32
2022-10-03T22:08:53.065Z,7.10
2022-10-03T22:11:35.563Z,6.35
2022-10-03T22:14:13.801Z,6.50
2022-10-03T22:16:49.348Z,6.30
2022-10-03T22:19:22.659Z,6.70
2022-10-03T22:22:04.967Z,6.32
2022-10-03T22:30:39.712Z,6.03
2022-10-03T22:33:20.125Z,5.43
2022-10-03T22:35:54.103Z,5.10
2022-10-03T22:38:27.706Z,5.10
2022-10-03T22:41:00.351Z,4.60
2022-10-03T22:43:29.741Z,4.72
2022-10-03T22:45:59.666Z,4.78
2022-10-03T22:48:34.483Z,4.13
2022-10-03T22:51:06.854Z,4.55
2022-10-03T22:53:38.018Z,4.55
2022-10-03T22:56:37.860Z,4.72
2022-10-03T22:59:09.606Z,4.57
2022-10-03T23:01:42.182Z,4.50
2022-10-03T23:04:19.386Z,4.45
2022-10-03T23:07:09.948Z,4.25
2022-10-03T23:09:46.056Z,4.65
2022-10-03T23:12:16.658Z,4.32
2022-10-03T23:14:49.605Z,4.22
2022-10-03T23:17:38.819Z,3.88
2022-10-03T23:20:18.917Z,4.47
2022-10-03T23:22:52.420Z,4.05
2022-10-03T23:25:25.639Z,4.00
2022-10-03T23:28:07.559Z,4.00
2022-10-03T23:30:54.458Z,4.63
2022-10-03T23:33:53.722Z,3.90
2022-10-03T23:36:25.551Z,3.63
2022-10-03T23:38:59.839Z,3.92
2022-10-03T23:41:47.740Z,4.45
2022-10-03T23:44:48.925Z,3.47
2022-10-03T23:47:20.739Z,3.40
2022-10-03T23:49:52.156Z,3.42
2022-10-03T23:52:26.250Z,3.30
2022-10-03T23:54:57.858Z,3.55
2022-10-03T23:57:31.457Z,3.60
2022-10-03T23:59:59.687Z,4.72
